This is the latest recevied weather packets stored in our database for station/object N4MGC. If no packets are shown the sender has not sent any weather packets the latest 10 day(s).
| Time | Temp. | Humidity | Pressure | Rain* | Wind** | Luminosity | Snow |
|---|---|---|---|---|---|---|---|
| 1777919273 | 26.67° C | 45% | 1015 hPa | 0 mm | - | 490 W/m² | - |
| 1777918970 | 26.67° C | 49% | 1014.9 hPa | 0 mm | - | 684 W/m² | - |
| 1777918668 | 25.56° C | 52% | 1014.9 hPa | 0 mm | - | 832 W/m² | - |
| 1777918365 | 25.56° C | 46% | 1015.1 hPa | 0 mm | - | 491 W/m² | - |
| 1777918064 | 25° C | 53% | 1015.4 hPa | 0 mm | - | 678 W/m² | - |
| 1777917762 | 24.44° C | 51% | 1015.4 hPa | 0 mm | - | 537 W/m² | - |
| 1777917459 | 25.56° C | 50% | 1015.5 hPa | 0 mm | - | 599 W/m² | - |
| 1777917156 | 25° C | 46% | 1015.4 hPa | 0 mm | - | 458 W/m² | - |
| 1777916854 | 25° C | 50% | 1015.6 hPa | 0 mm | - | 635 W/m² | - |
| 1777916552 | 25° C | 53% | 1015.5 hPa | 0 mm | - | 780 W/m² | - |
| 1777916248 | 25° C | 51% | 1015.8 hPa | 0 mm | - | 554 W/m² | - |
| 1777915945 | 25° C | 49% | 1015.8 hPa | 0 mm | - | 741 W/m² | - |
| 1777915642 | 23.89° C | 50% | 1015.6 hPa | 0 mm | - | 783 W/m² | - |
| 1777915338 | 23.89° C | 48% | 1015.8 hPa | 0 mm | - | 549 W/m² | - |
| 1777915035 | 23.89° C | 52% | 1015.8 hPa | 0 mm | - | 726 W/m² | - |
| 1777914732 | 25° C | 48% | 1015.9 hPa | 0 mm | - | 749 W/m² | - |
| 1777914428 | 24.44° C | 50% | 1015.8 hPa | 0 mm | - | 507 W/m² | - |
| 1777914126 | 24.44° C | 49% | 1016 hPa | 0 mm | - | 757 W/m² | - |
| 1777913822 | 25° C | 47% | 1016 hPa | 0 mm | - | 747 W/m² | - |
| 1777913518 | 24.44° C | 49% | 1016.1 hPa | 0 mm | - | 753 W/m² | - |
| 1777913215 | 25° C | 53% | 1016.5 hPa | 0 mm | - | 743 W/m² | - |
| 1777912911 | 23.89° C | 51% | 1016.3 hPa | 0 mm | - | 735 W/m² | - |
| 1777912608 | 23.89° C | 52% | 1016.6 hPa | 0 mm | - | 736 W/m² | - |
| 1777912304 | 23.89° C | 53% | 1016.5 hPa | 0 mm | - | 750 W/m² | - |
| 1777912000 | 23.89° C | 53% | 1016.4 hPa | 0 mm | - | 747 W/m² | - |
* Rain latest hour (hover to see other rain measurements)
** Current wind speed in m/s (hover to see current wind gust speed)